Santa Barbara — 3FWW8 — position and weather

sailwx.info

Track history (hours):
 
Tides and Currents Weather Stations Pressure Air Temp Water Temp Dewpoint Dewpoint Depression Visibility Wind Speed Wind Dir Waves Ship Positions

Santa Barbara

Last reported at 2015-Mar-30 16:11 UTC. Time now 2015-Apr-18 20:52 UTC.
Position S 24°07' W 046°17'.
Warning: this ship's position is 19 days out of date.

Length 225 m; draft 6.7 m.

Type: Cargo ship. MMSI: 372230000.

Date/timePositionNaut miles runAvg speedWind from/ knotsBaromVisibWave heightAir tempDewpointWater temp
2015-Mar-30 16:11S 24°07' W 046°17'0 0.5
2015-Mar-30 15:33S 24°07' W 046°17'6 6.0
2015-Mar-30 14:33S 24°01' W 046°20'0 0.0
2015-Mar-30 13:33S 24°01' W 046°20'0 0.0
2015-Mar-30 12:30S 24°01' W 046°20'0 0.2
2015-Mar-30 11:33S 24°01' W 046°20'3 3.4
2015-Mar-30 10:33S 24°04' W 046°22'9 8.0
2015-Mar-30 09:23S 24°14' W 046°23'3 0.9
2015-Mar-30 05:33S 24°15' W 046°19'0 0.0
2015-Mar-29 11:23S 24°15' W 046°19'0 0.0
2015-Mar-29 02:14S 24°15' W 046°19'0 0.0
2015-Mar-29 00:26S 24°15' W 046°19'0 0.0
2015-Mar-28 23:08S 24°15' W 046°19'0 0.0
2015-Mar-28 22:26S 24°15' W 046°19'0 0.0
2015-Mar-28 20:32S 24°15' W 046°19'4 0.2
2015-Mar-27 17:30S 24°10' W 046°18'9 9.4
2015-Mar-27 16:32S 24°01' W 046°20'0 0.1
2015-Mar-27 15:20S 24°01' W 046°20'0 0.1
2015-Mar-27 14:11S 24°01' W 046°20'0 0.1
2015-Mar-27 13:20S 24°02' W 046°20'1 1.2
2015-Mar-27 12:34S 24°02' W 046°20'5 4.8
2015-Mar-27 11:29S 24°06' W 046°16'2 0.5
2015-Mar-27 07:33S 24°05' W 046°17'5 5.1
2015-Mar-27 06:34S 23°59' W 046°18'8 8.0
2015-Mar-27 05:31S 23°52' W 046°23'0 0.0
2015-Mar-26 08:22S 23°52' W 046°23'0 0.0
2015-Mar-26 06:10S 23°52' W 046°23'0 0.0
2015-Mar-26 05:22S 23°52' W 046°23'0 0.0
2015-Mar-26 04:10S 23°52' W 046°23'0 0.0
2015-Mar-26 02:04S 23°52' W 046°23'0 0.0
2015-Mar-26 01:10S 23°52' W 046°23'0 0.0
2015-Mar-25 20:28S 23°52' W 046°23'0 0.0
2015-Mar-25 10:04S 23°52' W 046°23'0 0.0
2015-Mar-25 08:28S 23°52' W 046°23'0 0.0
2015-Mar-24 15:04S 23°52' W 046°23'0 0.0
2015-Mar-24 07:04S 23°52' W 046°23'1 0.1
2015-Mar-23 20:34S 23°54' W 046°23'6 6.2
2015-Mar-23 19:34S 23°58' W 046°18'8 7.6
2015-Mar-23 18:34S 24°05' W 046°22'6 6.2
2015-Mar-23 17:31S 24°11' W 046°19'0 0.0
2015-Mar-22 20:22S 24°11' W 046°19'3 2.8
2015-Mar-22 19:24S 24°11' W 046°22'22513.3
2015-Mar-22 02:28S 27°38' W 048°02'1314.0
2015-Mar-22 01:33S 27°50' W 048°07'  
Track history (hours):
 
Tides and Currents Weather Stations Pressure Air Temp Water Temp Dewpoint Dewpoint Depression Visibility Wind Speed Wind Dir Waves Ship Positions

Santa Barbara

Last reported at 2015-Mar-30 16:11 UTC. Time now 2015-Apr-18 20:52 UTC.
Position S 24°07' W 046°17'.
Warning: this ship's position is 19 days out of date.

Length 225 m; draft 6.7 m.

Type: Cargo ship. MMSI: 372230000.

Date/timePositionNaut miles runAvg speedWind from/ knotsBaromVisibWave heightAir tempDewpointWater temp
2015-Mar-30 16:11S 24°07' W 046°17'0 0.5
2015-Mar-30 15:33S 24°07' W 046°17'6 6.0
2015-Mar-30 14:33S 24°01' W 046°20'0 0.0
2015-Mar-30 13:33S 24°01' W 046°20'0 0.0
2015-Mar-30 12:30S 24°01' W 046°20'0 0.2
2015-Mar-30 11:33S 24°01' W 046°20'3 3.4
2015-Mar-30 10:33S 24°04' W 046°22'9 8.0
2015-Mar-30 09:23S 24°14' W 046°23'3 0.9
2015-Mar-30 05:33S 24°15' W 046°19'0 0.0
2015-Mar-29 11:23S 24°15' W 046°19'0 0.0
2015-Mar-29 02:14S 24°15' W 046°19'0 0.0
2015-Mar-29 00:26S 24°15' W 046°19'0 0.0
2015-Mar-28 23:08S 24°15' W 046°19'0 0.0
2015-Mar-28 22:26S 24°15' W 046°19'0 0.0
2015-Mar-28 20:32S 24°15' W 046°19'4 0.2
2015-Mar-27 17:30S 24°10' W 046°18'9 9.4
2015-Mar-27 16:32S 24°01' W 046°20'0 0.1
2015-Mar-27 15:20S 24°01' W 046°20'0 0.1
2015-Mar-27 14:11S 24°01' W 046°20'0 0.1
2015-Mar-27 13:20S 24°02' W 046°20'1 1.2
2015-Mar-27 12:34S 24°02' W 046°20'5 4.8
2015-Mar-27 11:29S 24°06' W 046°16'2 0.5
2015-Mar-27 07:33S 24°05' W 046°17'5 5.1
2015-Mar-27 06:34S 23°59' W 046°18'8 8.0
2015-Mar-27 05:31S 23°52' W 046°23'0 0.0
2015-Mar-26 08:22S 23°52' W 046°23'0 0.0
2015-Mar-26 06:10S 23°52' W 046°23'0 0.0
2015-Mar-26 05:22S 23°52' W 046°23'0 0.0
2015-Mar-26 04:10S 23°52' W 046°23'0 0.0
2015-Mar-26 02:04S 23°52' W 046°23'0 0.0
2015-Mar-26 01:10S 23°52' W 046°23'0 0.0
2015-Mar-25 20:28S 23°52' W 046°23'0 0.0
2015-Mar-25 10:04S 23°52' W 046°23'0 0.0
2015-Mar-25 08:28S 23°52' W 046°23'0 0.0
2015-Mar-24 15:04S 23°52' W 046°23'0 0.0
2015-Mar-24 07:04S 23°52' W 046°23'1 0.1
2015-Mar-23 20:34S 23°54' W 046°23'6 6.2
2015-Mar-23 19:34S 23°58' W 046°18'8 7.6
2015-Mar-23 18:34S 24°05' W 046°22'6 6.2
2015-Mar-23 17:31S 24°11' W 046°19'0 0.0
2015-Mar-22 20:22S 24°11' W 046°19'3 2.8
2015-Mar-22 19:24S 24°11' W 046°22'22513.3
2015-Mar-22 02:28S 27°38' W 048°02'1314.0
2015-Mar-22 01:33S 27°50' W 048°07'  

Dump ship's entire track history